Have a Safe July 4th! 

Flight Track Log - Related Links

Times and Time Zones

All times are in EDT time to prevent confusion due to time zone crossing. See the AAR8731 flight status page for this flight to view local times or setup timezone preferences in your user account.

Time Position Orientation Groundspeed Altitude Reporting Facility
EDT Latitude Longitude Course Direction KTS MPH feet Rate Location/Type
Wed 06:38:00 PM 37.2767 126.8788 166° South  Level Estimated
Wed 06:39:00 PM 37.1829 126.9081 166° South  Level Estimated
Wed 06:39:23 PM 37.4750 126.6460 166° South 343 395 11,400  Level FlightAware ADS-B
Wed 06:40:00 PM 37.0890 126.9373 166° South  Level Estimated
Wed 06:40:04 PM 37.4030 126.6630 169° South 392 451 12,400  Level FlightAware ADS-B
Wed 06:41:04 PM 37.2910 126.6900 169° South 409 471 15,000 2,280 Climbing FlightAware ADS-B
Wed 06:41:44 PM 37.2120 126.7090 169° South 429 494 16,200 1,012 Climbing FlightAware ADS-B
Wed 06:42:27 PM 37.1360 126.7270 169° South 440 506 16,400 150 Climbing FlightAware ADS-B
Wed 06:43:04 PM 37.0730 126.7430 169° South 440 506 16,400  Level FlightAware ADS-B
Wed 06:43:40 PM 37.0120 126.7580 169° South 440 506 16,400  Level FlightAware ADS-B
Wed 06:44:17 PM 36.9490 126.7730 169° South 440 506 16,400  Level FlightAware ADS-B
Wed 06:45:05 PM 36.8670 126.7930 169° South 440 506 16,400  Level FlightAware ADS-B
Wed 06:45:41 PM 36.8060 126.8080 169° South 440 506 16,400  Level FlightAware ADS-B
Wed 06:48:00 PM 36.5937 126.8972 161° South  Level Estimated
Wed 06:49:00 PM 36.5020 126.9356 161° South  Level Estimated
Wed 06:50:00 PM 36.4103 126.9739 161° South  Level Estimated
Wed 06:51:00 PM 36.3186 127.0121 161° South  Level Estimated
Wed 06:52:00 PM 36.2269 127.0502 161° South  Level Estimated
Wed 06:53:00 PM 36.1352 127.0882 161° South  Level Estimated
Wed 06:54:00 PM 36.0435 127.1261 162° South  Level Estimated
Wed 06:55:00 PM 35.9517 127.1640 162° South  Level Estimated
Wed 06:56:00 PM 35.8600 127.2017 162° South  Level Estimated
Wed 06:57:00 PM 35.7682 127.2394 162° South  Level Estimated
Wed 06:58:00 PM 35.6764 127.2769 162° South  Level Estimated
Wed 06:59:00 PM 35.5846 127.3144 162° South  Level Estimated
Wed 07:00:00 PM 35.4928 127.3518 162° South  Level Estimated
Wed 07:01:00 PM 35.4010 127.3892 162° South  Level Estimated
Wed 07:02:00 PM 35.3092 127.4264 162° South  Level Estimated
Wed 07:03:00 PM 35.2173 127.4635 162° South  Level Estimated
Wed 07:04:00 PM 35.1255 127.5006 162° South  Level Estimated
Wed 07:05:00 PM 35.0336 127.5376 162° South  Level Estimated
Wed 07:06:00 PM 34.9418 127.5745 162° South  Level Estimated
Wed 07:07:00 PM 34.8499 127.6113 162° South  Level Estimated
Wed 07:08:00 PM 34.8398 127.6153 162° South  Level Estimated
Wed 07:09:00 PM 34.8398 127.6153 180° South  Level Estimated
Wed 07:10:00 PM 34.8398 127.6153 180° South  Level Estimated
Wed 07:11:00 PM 34.8398 127.6153 180° South  Level Estimated
Wed 07:12:00 PM 34.8398 127.6153 180° South  Level Estimated
Wed 07:13:00 PM 34.8398 127.6153 180° South  Level Estimated
Wed 07:14:00 PM 34.8398 127.6153 180° South  Level Estimated
Wed 07:15:00 PM 34.8398 127.6153 180° South  Level Estimated
Wed 07:16:00 PM 34.8398 127.6153 180° South  Level Estimated

Login

Don't have an account? Register now (free) for customized features, flight alerts, and more!